createdAt,value
2022-09-06T00:01:10.938Z,18.10
2022-09-06T00:04:18.650Z,18.20
2022-09-06T00:07:25.159Z,18.20
2022-09-06T00:10:33.827Z,18.20
2022-09-06T00:13:40.513Z,18.20
2022-09-06T00:16:47.093Z,18.10
2022-09-06T00:19:55.134Z,18.10
2022-09-06T00:23:05.620Z,18.00
2022-09-06T00:26:12.261Z,18.00
2022-09-06T00:29:18.683Z,17.90
2022-09-06T00:32:25.297Z,17.80
2022-09-06T00:35:32.682Z,17.80
2022-09-06T00:38:39.968Z,17.70
2022-09-06T00:41:46.518Z,17.70
2022-09-06T00:44:53.151Z,17.60
2022-09-06T00:48:01.476Z,17.60
2022-09-06T00:51:12.718Z,17.60
2022-09-06T00:54:19.556Z,17.50
2022-09-06T00:57:27.245Z,17.50
2022-09-06T01:00:33.655Z,17.40
2022-09-06T01:03:40.411Z,17.30
2022-09-06T01:06:58.687Z,17.30
2022-09-06T01:10:38.654Z,17.30
2022-09-06T01:13:55.814Z,17.20
2022-09-06T01:17:12.527Z,17.20
2022-09-06T01:20:53.067Z,17.10
2022-09-06T01:24:38.897Z,17.10
2022-09-06T01:28:23.639Z,17.00
2022-09-06T01:31:36.598Z,16.90
2022-09-06T01:34:49.134Z,16.90
2022-09-06T01:37:55.982Z,16.80
2022-09-06T01:41:02.591Z,16.80
2022-09-06T01:44:10.101Z,16.80
2022-09-06T01:47:26.907Z,16.80
2022-09-06T01:50:52.334Z,16.80
2022-09-06T01:54:25.898Z,16.80
2022-09-06T01:57:53.476Z,16.80
2022-09-06T02:01:07.576Z,16.70
2022-09-06T02:04:22.531Z,16.60
2022-09-06T02:07:32.691Z,16.60
2022-09-06T02:10:46.367Z,16.60
2022-09-06T02:13:58.153Z,16.60
2022-09-06T02:17:07.022Z,16.50
2022-09-06T02:20:19.419Z,16.50
2022-09-06T02:23:30.282Z,16.50
2022-09-06T02:26:41.928Z,16.50
2022-09-06T02:29:48.605Z,16.50
2022-09-06T02:32:59.699Z,16.40
2022-09-06T02:36:10.117Z,16.30
2022-09-06T02:39:16.735Z,16.30
2022-09-06T02:42:25.309Z,16.20
2022-09-06T02:45:31.726Z,16.10
2022-09-06T02:48:39.398Z,16.10
2022-09-06T02:51:45.959Z,16.00
2022-09-06T02:54:52.463Z,16.00
2022-09-06T02:57:58.874Z,16.00
2022-09-06T03:01:05.876Z,15.90
2022-09-06T03:04:14.050Z,15.90
2022-09-06T03:07:20.435Z,15.80
2022-09-06T03:10:27.538Z,15.80
2022-09-06T03:13:34.356Z,15.80
2022-09-06T03:16:40.945Z,15.70
2022-09-06T03:19:48.705Z,15.60
2022-09-06T03:22:55.318Z,15.60
2022-09-06T03:26:01.581Z,15.60
2022-09-06T03:29:08.083Z,15.60
2022-09-06T03:32:14.539Z,15.60
2022-09-06T03:35:22.306Z,15.60
2022-09-06T03:38:30.220Z,15.60
2022-09-06T03:41:38.178Z,15.70
2022-09-06T03:44:44.649Z,15.70
2022-09-06T03:47:51.038Z,15.60
2022-09-06T03:51:00.183Z,15.50
2022-09-06T03:54:07.479Z,15.40
2022-09-06T03:57:13.948Z,15.40
2022-09-06T04:00:20.346Z,15.30
2022-09-06T04:03:26.890Z,15.30
2022-09-06T04:06:34.682Z,15.30
2022-09-06T04:09:40.670Z,15.30
2022-09-06T04:12:46.941Z,15.40
2022-09-06T04:15:53.455Z,15.40
2022-09-06T04:19:01.495Z,15.50
2022-09-06T04:22:09.270Z,15.40
2022-09-06T04:25:15.528Z,15.30
2022-09-06T04:28:23.105Z,15.30
2022-09-06T04:31:29.495Z,15.30
2022-09-06T04:34:35.663Z,15.20
2022-09-06T04:37:43.499Z,15.20
2022-09-06T04:40:49.844Z,15.20
2022-09-06T04:43:56.562Z,15.20
2022-09-06T04:47:10.262Z,15.20
2022-09-06T04:50:16.844Z,15.20
2022-09-06T04:53:28.948Z,15.20
2022-09-06T04:56:35.370Z,15.20
2022-09-06T04:59:41.687Z,15.20
2022-09-06T05:02:48.510Z,15.20
2022-09-06T05:06:06.562Z,15.20
2022-09-06T05:09:14.866Z,15.20
2022-09-06T05:12:21.622Z,15.10
2022-09-06T05:15:27.814Z,15.10
2022-09-06T05:18:35.103Z,15.10
2022-09-06T05:21:41.543Z,15.10
2022-09-06T05:24:49.235Z,15.10
2022-09-06T05:27:55.667Z,15.10
2022-09-06T05:31:09.610Z,15.10
2022-09-06T05:34:16.166Z,15.10
2022-09-06T05:37:22.511Z,15.20
2022-09-06T05:40:30.411Z,15.20
2022-09-06T05:43:36.815Z,15.20
2022-09-06T05:46:45.232Z,15.30
2022-09-06T05:49:52.172Z,15.30
2022-09-06T05:52:58.651Z,15.40
2022-09-06T05:56:07.612Z,15.50
2022-09-06T05:59:13.891Z,15.70
2022-09-06T06:02:20.659Z,15.70
2022-09-06T06:05:27.179Z,15.90
2022-09-06T06:08:33.813Z,16.10
2022-09-06T06:11:42.304Z,16.30
2022-09-06T06:14:48.629Z,16.50
2022-09-06T06:17:54.840Z,16.60
2022-09-06T06:21:13.283Z,16.80
2022-09-06T06:24:19.823Z,17.00
2022-09-06T06:27:27.752Z,17.10
2022-09-06T06:30:34.107Z,17.30
2022-09-06T06:33:40.590Z,17.50
2022-09-06T06:36:47.178Z,17.70
2022-09-06T06:39:53.545Z,17.90
2022-09-06T06:43:01.532Z,17.90
2022-09-06T06:46:10.711Z,18.00
2022-09-06T06:49:16.955Z,18.10
2022-09-06T06:52:24.310Z,18.10
2022-09-06T06:55:30.638Z,18.30
2022-09-06T06:58:38.184Z,18.50
2022-09-06T07:01:44.745Z,18.90
2022-09-06T07:04:51.430Z,19.30
2022-09-06T07:07:57.962Z,19.90
2022-09-06T07:11:05.142Z,20.30
2022-09-06T07:14:13.122Z,20.50
2022-09-06T07:17:19.728Z,20.60
2022-09-06T07:20:27.037Z,20.50
2022-09-06T07:30:27.510Z,20.50
2022-09-06T07:33:36.588Z,20.60
2022-09-06T07:36:43.055Z,20.50
2022-09-06T07:39:49.452Z,20.50
2022-09-06T07:42:58.306Z,20.60
2022-09-06T07:46:08.778Z,20.70
2022-09-06T07:49:15.258Z,21.00
2022-09-06T07:55:48.120Z,21.50
2022-09-06T07:58:54.513Z,21.70
2022-09-06T08:02:02.356Z,22.10
2022-09-06T08:12:06.568Z,22.60
2022-09-06T08:15:13.055Z,22.80
2022-09-06T08:18:20.992Z,22.90
2022-09-06T08:21:30.108Z,23.10
2022-09-06T08:24:36.746Z,24.30
2022-09-06T08:27:43.343Z,26.20
2022-09-06T08:30:49.594Z,27.70
2022-09-06T08:33:57.969Z,29.20
2022-09-06T08:37:04.574Z,29.80
2022-09-06T08:40:11.932Z,30.20
2022-09-06T08:43:21.095Z,29.80
2022-09-06T08:46:36.610Z,30.20
2022-09-06T08:49:46.368Z,30.70
2022-09-06T08:53:18.710Z,31.30
2022-09-06T08:56:30.863Z,32.30
2022-09-06T08:59:40.646Z,33.30
2022-09-06T09:02:51.735Z,33.90
2022-09-06T09:06:03.447Z,33.60
2022-09-06T09:09:14.564Z,33.60
2022-09-06T09:12:24.539Z,33.90
2022-09-06T09:15:31.460Z,34.30
2022-09-06T09:18:41.289Z,34.70
2022-09-06T09:21:49.699Z,34.80
2022-09-06T09:24:59.905Z,34.20
2022-09-06T09:28:16.664Z,33.60
2022-09-06T09:31:36.280Z,33.40
2022-09-06T09:34:42.674Z,33.60
2022-09-06T09:38:04.938Z,33.80
2022-09-06T09:41:29.646Z,34.10
2022-09-06T09:44:37.451Z,34.60
2022-09-06T09:47:43.670Z,35.10
2022-09-06T09:50:50.275Z,35.50
2022-09-06T09:54:01.849Z,35.40
2022-09-06T09:57:12.115Z,35.90
2022-09-06T10:00:36.279Z,35.90
2022-09-06T10:07:12.454Z,36.40
2022-09-06T10:10:24.630Z,36.10
2022-09-06T10:13:33.554Z,35.90
2022-09-06T10:16:45.827Z,36.10
2022-09-06T10:19:52.769Z,36.00
2022-09-06T10:23:08.117Z,36.10
2022-09-06T10:26:25.166Z,36.30
2022-09-06T10:29:43.811Z,36.40
2022-09-06T10:32:58.843Z,36.70
2022-09-06T10:36:05.735Z,36.80
2022-09-06T10:39:29.416Z,37.30
2022-09-06T10:42:45.262Z,37.50
2022-09-06T10:46:00.757Z,37.90
2022-09-06T10:49:12.746Z,38.00
2022-09-06T10:52:26.611Z,37.70
2022-09-06T10:55:33.336Z,36.60
2022-09-06T11:02:33.810Z,37.00
2022-09-06T11:05:45.663Z,37.40
2022-09-06T11:08:58.232Z,37.50
2022-09-06T11:12:13.512Z,37.40
2022-09-06T11:15:23.287Z,37.30
2022-09-06T11:18:36.674Z,35.80
2022-09-06T11:22:26.465Z,35.00
2022-09-06T11:26:01.242Z,35.30
2022-09-06T11:29:10.701Z,36.30
2022-09-06T11:32:36.902Z,36.70
2022-09-06T11:35:44.978Z,36.70
2022-09-06T11:39:00.804Z,37.10
2022-09-06T11:42:09.860Z,37.50
2022-09-06T11:45:22.521Z,37.90
2022-09-06T11:48:52.097Z,37.90
2022-09-06T11:51:58.790Z,37.90
2022-09-06T11:55:05.863Z,37.10
2022-09-06T11:58:24.950Z,36.30
2022-09-06T12:01:40.919Z,35.30
2022-09-06T12:05:17.117Z,34.70
2022-09-06T12:08:33.014Z,34.50
2022-09-06T12:11:44.367Z,34.80
2022-09-06T12:14:50.538Z,34.50
2022-09-06T12:17:57.729Z,33.60
2022-09-06T12:21:06.055Z,33.10
2022-09-06T12:24:55.622Z,32.60
2022-09-06T12:28:03.441Z,32.40
2022-09-06T12:31:30.505Z,32.60
2022-09-06T12:34:39.230Z,32.40
2022-09-06T12:37:55.238Z,31.90
2022-09-06T12:41:05.772Z,31.00
2022-09-06T12:44:12.914Z,30.30
2022-09-06T12:47:26.414Z,29.70
2022-09-06T12:50:32.654Z,29.00
2022-09-06T12:53:38.925Z,28.40
2022-09-06T12:56:46.439Z,27.90
2022-09-06T12:59:55.541Z,27.50
2022-09-06T13:03:09.826Z,27.30
2022-09-06T13:06:26.865Z,27.10
2022-09-06T13:09:35.042Z,27.20
2022-09-06T13:12:47.218Z,27.30
2022-09-06T13:15:54.431Z,27.60
2022-09-06T13:19:14.649Z,27.90
2022-09-06T13:22:44.864Z,28.20
2022-09-06T13:25:53.875Z,28.60
2022-09-06T13:29:13.172Z,29.20
2022-09-06T13:32:19.586Z,29.70
2022-09-06T13:35:28.717Z,30.00
2022-09-06T13:38:41.029Z,30.20
2022-09-06T13:41:56.401Z,30.70
2022-09-06T13:45:25.190Z,30.70
2022-09-06T13:48:31.846Z,30.40
2022-09-06T13:51:40.039Z,30.00
2022-09-06T13:54:47.888Z,29.60
2022-09-06T13:57:54.429Z,29.20
2022-09-06T14:01:02.503Z,29.00
2022-09-06T14:04:11.264Z,28.90
2022-09-06T14:07:17.989Z,28.90
2022-09-06T14:10:24.567Z,28.60
2022-09-06T14:13:31.747Z,28.30
2022-09-06T14:16:40.248Z,27.90
2022-09-06T14:19:47.090Z,27.30
2022-09-06T14:22:53.727Z,26.90
2022-09-06T14:26:02.278Z,26.50
2022-09-06T14:29:09.130Z,26.20
2022-09-06T14:32:20.527Z,25.90
2022-09-06T14:35:29.001Z,25.70
2022-09-06T14:38:38.618Z,25.60
2022-09-06T14:41:48.244Z,25.70
2022-09-06T14:44:54.677Z,25.80
2022-09-06T14:48:02.974Z,26.10
2022-09-06T14:51:11.206Z,26.30
2022-09-06T14:54:19.977Z,26.50
2022-09-06T14:57:26.434Z,26.60
2022-09-06T15:00:33.268Z,26.60
2022-09-06T15:03:42.935Z,26.60
2022-09-06T15:06:50.830Z,26.50
2022-09-06T15:09:57.391Z,26.50
2022-09-06T15:13:03.974Z,26.50
2022-09-06T15:16:12.032Z,26.40
2022-09-06T15:19:20.791Z,26.40
2022-09-06T15:22:27.764Z,26.40
2022-09-06T15:25:34.146Z,26.40
2022-09-06T15:28:42.363Z,26.40
2022-09-06T15:31:51.889Z,26.50
2022-09-06T15:35:04.557Z,26.60
2022-09-06T15:38:12.763Z,26.60
2022-09-06T15:41:25.179Z,26.50
2022-09-06T15:44:31.714Z,26.40
2022-09-06T15:47:37.997Z,26.30
2022-09-06T15:50:51.634Z,26.30
2022-09-06T15:54:00.692Z,26.30
2022-09-06T15:57:07.235Z,26.20
2022-09-06T16:00:17.134Z,26.30
2022-09-06T16:03:23.994Z,26.30
2022-09-06T16:06:33.862Z,26.20
2022-09-06T16:09:40.614Z,26.10
2022-09-06T16:12:50.495Z,25.90
2022-09-06T16:15:58.359Z,25.70
2022-09-06T16:19:04.869Z,25.50
2022-09-06T16:22:12.985Z,25.30
2022-09-06T16:25:19.561Z,25.20
2022-09-06T16:28:29.469Z,25.00
2022-09-06T16:31:39.984Z,24.90
2022-09-06T16:34:46.927Z,24.80
2022-09-06T16:37:54.745Z,24.70
2022-09-06T16:41:02.494Z,24.70
2022-09-06T16:44:14.404Z,24.70
2022-09-06T16:47:20.908Z,24.60
2022-09-06T16:50:27.446Z,24.60
2022-09-06T16:53:35.177Z,24.60
2022-09-06T16:56:41.760Z,24.50
2022-09-06T16:59:48.918Z,24.50
2022-09-06T17:02:56.628Z,24.40
2022-09-06T17:06:03.091Z,24.40
2022-09-06T17:09:12.016Z,24.30
2022-09-06T17:12:18.382Z,24.30
2022-09-06T17:15:25.250Z,24.20
2022-09-06T17:18:30.885Z,24.10
2022-09-06T17:21:39.184Z,23.90
2022-09-06T17:24:47.463Z,23.80
2022-09-06T17:27:54.015Z,23.70
2022-09-06T17:31:03.645Z,23.60
2022-09-06T17:34:10.803Z,23.50
2022-09-06T17:37:17.367Z,23.40
2022-09-06T17:40:25.072Z,23.30
2022-09-06T17:43:32.454Z,23.30
2022-09-06T17:46:51.930Z,23.20
2022-09-06T17:50:06.162Z,23.10
2022-09-06T17:53:12.583Z,23.10
2022-09-06T17:56:21.474Z,23.00
2022-09-06T17:59:32.815Z,23.00
2022-09-06T18:02:41.311Z,22.90
2022-09-06T18:05:47.909Z,22.80
2022-09-06T18:08:57.303Z,22.80
2022-09-06T18:12:06.817Z,22.70
2022-09-06T18:15:13.363Z,22.70
2022-09-06T18:18:19.810Z,22.60
2022-09-06T18:21:28.343Z,22.50
2022-09-06T18:24:35.003Z,22.40
2022-09-06T18:27:42.716Z,22.50
2022-09-06T18:30:49.273Z,22.60
2022-09-06T18:33:58.022Z,22.10
2022-09-06T18:37:05.694Z,20.50
2022-09-06T18:40:12.708Z,19.40
2022-09-06T18:43:20.949Z,18.80
2022-09-06T18:46:27.204Z,18.50
2022-09-06T18:49:35.069Z,18.40
2022-09-06T18:52:41.620Z,18.30
2022-09-06T18:55:52.968Z,18.20
2022-09-06T18:59:02.135Z,18.10
2022-09-06T19:02:08.890Z,18.10
2022-09-06T19:05:15.214Z,18.10
2022-09-06T19:08:21.762Z,18.00
2022-09-06T19:11:29.108Z,18.00
2022-09-06T19:14:37.102Z,18.00
2022-09-06T19:17:43.505Z,18.00
2022-09-06T19:20:58.609Z,18.00
2022-09-06T19:24:08.164Z,18.00
2022-09-06T19:27:14.639Z,17.90
2022-09-06T19:30:22.365Z,17.80
2022-09-06T19:33:35.579Z,17.70
2022-09-06T19:36:43.246Z,17.70
2022-09-06T19:39:50.118Z,17.60
2022-09-06T19:42:57.212Z,17.50
2022-09-06T19:46:06.171Z,17.50
2022-09-06T19:49:12.631Z,17.40
2022-09-06T19:52:20.083Z,17.40
2022-09-06T19:55:26.752Z,17.30
2022-09-06T19:58:33.279Z,17.20
2022-09-06T20:01:43.227Z,17.20
2022-09-06T20:04:49.826Z,17.20
2022-09-06T20:07:56.472Z,17.10
2022-09-06T20:11:04.838Z,16.90
2022-09-06T20:14:12.201Z,16.80
2022-09-06T20:17:33.382Z,16.70
2022-09-06T20:20:40.738Z,16.60
2022-09-06T20:23:50.700Z,16.50
2022-09-06T20:26:57.740Z,16.50
2022-09-06T20:30:04.419Z,16.50
2022-09-06T20:33:12.906Z,16.50
2022-09-06T20:36:20.069Z,16.50
2022-09-06T20:39:26.790Z,16.40
2022-09-06T20:42:33.086Z,16.40
2022-09-06T20:45:39.696Z,16.30
2022-09-06T20:48:48.588Z,16.40
2022-09-06T20:51:55.241Z,16.30
2022-09-06T20:55:01.649Z,16.30
2022-09-06T20:58:08.213Z,16.30
2022-09-06T21:01:16.664Z,16.30
2022-09-06T21:04:26.115Z,16.30
2022-09-06T21:07:32.758Z,16.30
2022-09-06T21:10:39.344Z,16.30
2022-09-06T21:13:49.280Z,16.30
2022-09-06T21:16:55.947Z,16.30
2022-09-06T21:20:04.690Z,16.20
2022-09-06T21:23:11.438Z,16.20
2022-09-06T21:26:18.563Z,16.10
2022-09-06T21:29:25.309Z,16.10
2022-09-06T21:32:31.843Z,16.10
2022-09-06T21:35:39.665Z,16.10
2022-09-06T21:38:48.824Z,16.10
2022-09-06T21:41:55.772Z,16.10
2022-09-06T21:45:02.540Z,16.10
2022-09-06T21:48:08.930Z,16.10
2022-09-06T21:51:20.218Z,16.20
2022-09-06T21:54:27.062Z,16.20
2022-09-06T21:57:33.418Z,16.20
2022-09-06T22:00:40.697Z,16.20
2022-09-06T22:03:47.517Z,16.20
2022-09-06T22:06:55.575Z,16.20
2022-09-06T22:10:02.226Z,16.30
2022-09-06T22:13:08.862Z,16.30
2022-09-06T22:16:17.907Z,16.30
2022-09-06T22:19:24.685Z,16.20
2022-09-06T22:22:32.433Z,16.20
2022-09-06T22:25:39.270Z,16.20
2022-09-06T22:28:45.642Z,16.10
2022-09-06T22:31:52.464Z,16.10
2022-09-06T22:34:58.917Z,16.10
2022-09-06T22:38:07.640Z,16.20
2022-09-06T22:41:14.364Z,16.10
2022-09-06T22:44:21.188Z,16.10
2022-09-06T22:47:27.850Z,16.10
2022-09-06T22:50:34.427Z,16.10
2022-09-06T22:53:42.365Z,16.10
2022-09-06T22:56:49.155Z,16.10
2022-09-06T22:59:55.787Z,16.10
2022-09-06T23:03:02.247Z,16.10
2022-09-06T23:06:09.318Z,16.10
2022-09-06T23:09:17.520Z,16.20
2022-09-06T23:12:23.810Z,16.20
2022-09-06T23:15:30.204Z,16.20
2022-09-06T23:18:36.801Z,16.20
2022-09-06T23:21:43.131Z,16.20
2022-09-06T23:24:50.985Z,16.20
2022-09-06T23:27:59.174Z,16.20
2022-09-06T23:31:06.987Z,16.30
2022-09-06T23:34:13.124Z,16.30
2022-09-06T23:37:19.510Z,16.30
2022-09-06T23:40:27.271Z,16.30
2022-09-06T23:43:34.302Z,16.30
2022-09-06T23:46:41.153Z,16.30
2022-09-06T23:49:48.122Z,16.20
2022-09-06T23:52:54.844Z,16.10
2022-09-06T23:56:03.617Z,16.10
2022-09-06T23:59:10.437Z,16.00
